Time;durP1;ratioP1;P1;durP2;ratioP2;P2;SDS_P1;SDS_P2;PMS_P1;PMS_P2;Temp;Humidity;BMP_temperature;BMP_pressure;BME280_temperature;BME280_humidity;BME280_pressure;Samples;Min_cycle;Max_cycle;Signal;HPM_P1;HPM_P2
2024/01/28 00:02:20;;;;;;;26.83;8.45;;;-0.40;99.90;;;;;;5115288;28;20075;-83
2024/01/28 00:04:45;;;;;;;23.15;7.75;;;-0.10;99.90;;;;;;5115688;28;20035;-84
2024/01/28 00:07:11;;;;;;;18.88;8.60;;;-0.50;99.90;;;;;;5115316;28;20553;-84
2024/01/28 00:09:37;;;;;;;25.90;8.20;;;1.50;99.90;;;;;;5116542;28;20070;-84
2024/01/28 00:12:03;;;;;;;17.42;8.10;;;-0.50;99.90;;;;;;5116106;28;20038;-85
2024/01/28 00:14:29;;;;;;;17.02;8.15;;;0.40;99.90;;;;;;5098100;28;20047;-83
2024/01/28 00:16:54;;;;;;;24.73;8.82;;;-0.20;99.90;;;;;;5115556;28;20545;-83
2024/01/28 00:19:20;;;;;;;18.40;8.13;;;0.20;99.90;;;;;;5114770;28;20422;-86
2024/01/28 00:21:48;;;;;;;20.83;8.30;;;0.00;99.90;;;;;;5116251;28;20055;-84
2024/01/28 00:24:14;;;;;;;23.35;8.95;;;-0.20;99.90;;;;;;5115652;28;20048;-84
2024/01/28 00:26:40;;;;;;;20.48;8.90;;;0.50;99.90;;;;;;5114784;28;20055;-84
2024/01/28 00:29:07;;;;;;;22.25;8.73;;;0.00;99.90;;;;;;5115769;28;20084;-86
2024/01/28 00:31:33;;;;;;;20.85;9.55;;;-0.20;99.90;;;;;;5114593;28;20039;-83
2024/01/28 00:33:59;;;;;;;22.98;8.45;;;1.80;99.90;;;;;;5114005;28;20043;-84
2024/01/28 00:36:25;;;;;;;14.30;7.55;;;-0.60;99.90;;;;;;5114676;28;20128;-84
2024/01/28 00:38:51;;;;;;;23.90;9.77;;;-0.90;99.90;;;;;;5115253;28;20138;-85
2024/01/28 00:41:26;;;;;;;21.38;8.48;;;0.40;99.90;;;;;;5114868;28;20043;-85
2024/01/28 00:43:52;;;;;;;25.23;8.57;;;0.10;99.90;;;;;;5114569;28;20043;-85
2024/01/28 00:46:20;;;;;;;18.42;7.85;;;-0.80;99.90;;;;;;5115740;28;20039;-83
2024/01/28 00:48:46;;;;;;;17.73;8.35;;;-1.20;99.90;;;;;;5115627;28;20083;-84
2024/01/28 00:51:12;;;;;;;28.52;8.93;;;0.20;99.90;;;;;;5114060;28;20043;-84
2024/01/28 00:53:38;;;;;;;23.48;9.00;;;-0.80;99.90;;;;;;5113568;28;20042;-83
2024/01/28 00:56:04;;;;;;;16.52;8.50;;;1.50;99.90;;;;;;5113921;28;20065;-84
2024/01/28 00:58:29;;;;;;;16.75;8.43;;;-0.20;99.90;;;;;;5115321;28;20049;-85
2024/01/28 01:00:55;;;;;;;16.67;8.45;;;-0.40;99.90;;;;;;5096993;28;20039;-84
2024/01/28 01:03:21;;;;;;;16.23;8.15;;;-0.30;99.90;;;;;;5115513;28;20116;-84
2024/01/28 01:05:47;;;;;;;20.02;8.80;;;-1.20;99.90;;;;;;5115153;28;20075;-83
2024/01/28 01:08:12;;;;;;;20.25;8.55;;;1.60;99.90;;;;;;5113636;28;20043;-86
2024/01/28 01:10:38;;;;;;;19.27;7.70;;;-0.30;99.90;;;;;;5114946;28;20039;-84
2024/01/28 01:13:04;;;;;;;25.48;8.48;;;-0.40;99.90;;;;;;5113755;28;20035;-84
2024/01/28 01:15:29;;;;;;;23.10;8.13;;;-0.90;99.90;;;;;;5113943;28;20055;-84
2024/01/28 01:17:58;;;;;;;22.95;8.68;;;0.60;99.90;;;;;;5096536;28;20035;-83
2024/01/28 01:20:24;;;;;;;19.40;7.68;;;-0.50;99.90;;;;;;5114367;28;20046;-83
2024/01/28 01:22:50;;;;;;;21.63;8.57;;;-0.30;99.90;;;;;;5096154;28;20123;-85
2024/01/28 01:25:16;;;;;;;19.98;8.70;;;-1.00;99.90;;;;;;5113528;28;20050;-84
2024/01/28 01:27:42;;;;;;;18.48;8.35;;;-0.60;99.90;;;;;;5113304;28;20039;-84
2024/01/28 01:30:09;;;;;;;16.63;8.63;;;0.50;99.90;;;;;;5113163;28;20126;-83
2024/01/28 01:32:37;;;;;;;24.30;9.13;;;-0.40;99.90;;;;;;5114391;28;20047;-84
2024/01/28 01:35:03;;;;;;;22.50;8.60;;;-0.40;99.90;;;;;;5114264;28;20093;-83
2024/01/28 01:37:29;;;;;;;26.77;8.65;;;-0.20;99.90;;;;;;5113100;28;20051;-85
2024/01/28 01:39:57;;;;;;;24.35;7.85;;;0.30;99.90;;;;;;5114317;28;20050;-84
2024/01/28 01:42:23;;;;;;;23.15;8.40;;;0.20;99.90;;;;;;5114578;28;20069;-87
2024/01/28 01:44:48;;;;;;;21.42;8.52;;;-0.20;99.90;;;;;;5096053;28;20051;-87
2024/01/28 01:47:14;;;;;;;20.83;8.20;;;-0.40;99.90;;;;;;5095968;28;20047;-83
2024/01/28 01:49:40;;;;;;;26.25;8.45;;;1.00;99.90;;;;;;5113404;28;20050;-84
2024/01/28 01:52:06;;;;;;;20.77;7.70;;;-0.10;99.90;;;;;;5095805;28;20044;-83
2024/01/28 01:54:33;;;;;;;22.27;8.52;;;-0.50;99.90;;;;;;5112863;28;20047;-85
2024/01/28 01:56:59;;;;;;;15.63;7.18;;;1.30;99.90;;;;;;5112840;28;20055;-85
2024/01/28 01:59:25;;;;;;;22.77;7.50;;;1.60;99.90;;;;;;5114201;28;20395;-84
2024/01/28 02:01:54;;;;;;;18.60;7.47;;;0.60;99.90;;;;;;5114186;28;20062;-85
2024/01/28 02:04:21;;;;;;;15.93;7.07;;;-0.40;99.90;;;;;;5095833;28;20036;-83
2024/01/28 02:06:49;;;;;;;16.60;6.43;;;-0.90;99.90;;;;;;5112343;28;20512;-83
2024/01/28 02:09:14;;;;;;;13.68;7.22;;;1.70;99.90;;;;;;5113813;28;20039;-84
2024/01/28 02:11:41;;;;;;;19.38;7.53;;;0.80;99.90;;;;;;5095135;28;20039;-84
2024/01/28 02:14:07;;;;;;;21.00;8.65;;;-0.60;99.90;;;;;;5113840;28;20050;-84
2024/01/28 02:16:33;;;;;;;17.27;7.05;;;-0.80;99.90;;;;;;5113849;28;20043;-84
2024/01/28 02:18:58;;;;;;;13.40;7.60;;;1.60;99.90;;;;;;5112161;28;20043;-84
2024/01/28 02:21:24;;;;;;;20.80;7.18;;;-0.90;99.90;;;;;;5113428;28;20069;-84
2024/01/28 02:23:50;;;;;;;17.98;7.57;;;-0.70;99.90;;;;;;5113735;28;20036;-85
2024/01/28 02:26:15;;;;;;;17.92;7.95;;;-1.00;99.90;;;;;;5112489;28;20130;-85
2024/01/28 02:28:41;;;;;;;15.15;6.75;;;-0.70;99.90;;;;;;5112716;28;20047;-83
2024/01/28 02:31:07;;;;;;;19.27;8.02;;;-0.60;99.90;;;;;;5113306;28;20048;-83
2024/01/28 02:33:32;;;;;;;20.88;7.40;;;-0.80;99.90;;;;;;5113277;28;20065;-84
2024/01/28 02:35:58;;;;;;;20.38;7.43;;;-0.70;99.90;;;;;;5113346;28;20051;-83
2024/01/28 02:38:24;;;;;;;12.88;6.68;;;1.10;99.90;;;;;;5112222;28;20083;-84
2024/01/28 02:40:52;;;;;;;20.40;8.63;;;-0.70;99.90;;;;;;5111672;28;20054;-83
2024/01/28 02:43:19;;;;;;;19.73;6.95;;;-0.60;99.90;;;;;;5114853;28;20488;-83
2024/01/28 02:45:44;;;;;;;19.55;7.93;;;-0.70;99.90;;;;;;5116351;28;20044;-83
2024/01/28 02:48:10;;;;;;;18.83;7.53;;;-0.10;99.90;;;;;;5099675;28;20545;-84
2024/01/28 02:50:36;;;;;;;19.08;7.32;;;0.00;99.90;;;;;;5117774;28;20044;-83
2024/01/28 02:53:02;;;;;;;22.85;7.75;;;-0.50;99.90;;;;;;5116446;28;20408;-84
2024/01/28 02:55:27;;;;;;;21.35;7.72;;;1.10;99.90;;;;;;5116333;28;20036;-86
2024/01/28 02:57:53;;;;;;;19.92;7.90;;;0.40;99.90;;;;;;5117315;28;20040;-85
2024/01/28 03:00:19;;;;;;;20.00;8.35;;;-1.10;99.90;;;;;;5117630;28;20134;-84
2024/01/28 03:02:44;;;;;;;20.42;8.13;;;0.50;99.90;;;;;;5116486;28;20035;-84
2024/01/28 03:05:11;;;;;;;27.63;8.43;;;1.80;99.90;;;;;;5116480;28;20500;-84
2024/01/28 03:07:36;;;;;;;18.67;8.98;;;-0.40;99.90;;;;;;5116227;28;20039;-87
2024/01/28 03:10:02;;;;;;;22.48;8.63;;;2.00;99.90;;;;;;5116426;28;20042;-86
2024/01/28 03:12:28;;;;;;;17.55;8.68;;;0.30;99.90;;;;;;5099386;28;20047;-83
2024/01/28 03:14:54;;;;;;;26.77;8.75;;;2.20;99.90;;;;;;5117047;27;20399;-84
2024/01/28 03:17:19;;;;;;;20.95;8.52;;;0.10;99.90;;;;;;5117501;28;20415;-85
2024/01/28 03:19:46;;;;;;;17.60;9.07;;;-0.30;99.90;;;;;;5117361;28;20474;-85
2024/01/28 03:22:12;;;;;;;20.55;10.00;;;0.40;99.90;;;;;;5116117;28;20456;-85
2024/01/28 03:24:40;;;;;;;21.35;9.38;;;0.60;99.90;;;;;;5117351;28;20043;-84
2024/01/28 03:27:06;;;;;;;26.48;9.00;;;-0.60;99.90;;;;;;5116038;28;20466;-84
2024/01/28 03:29:31;;;;;;;24.83;10.38;;;-0.40;99.90;;;;;;5115465;28;20496;-85
2024/01/28 03:31:57;;;;;;;21.42;9.25;;;-0.40;99.90;;;;;;5116941;28;20055;-84
2024/01/28 03:34:22;;;;;;;23.90;10.00;;;0.50;99.90;;;;;;5116918;28;20070;-83
2024/01/28 03:36:48;;;;;;;21.88;9.43;;;2.20;99.90;;;;;;5115779;28;20055;-86
2024/01/28 03:39:14;;;;;;;19.08;8.75;;;1.60;99.90;;;;;;5116828;28;20024;-85
2024/01/28 03:41:40;;;;;;;21.40;10.25;;;1.00;99.90;;;;;;5115036;28;20036;-84
2024/01/28 03:44:06;;;;;;;22.00;9.20;;;0.70;99.90;;;;;;5098519;28;20507;-86
2024/01/28 03:46:34;;;;;;;19.45;9.30;;;1.90;99.90;;;;;;5098200;28;20047;-84
2024/01/28 03:49:00;;;;;;;25.08;9.05;;;-0.20;99.90;;;;;;5115642;28;20044;-84
2024/01/28 03:51:26;;;;;;;22.33;10.70;;;-0.20;99.90;;;;;;5115405;28;20048;-85
2024/01/28 03:53:52;;;;;;;20.92;10.07;;;0.40;99.90;;;;;;5116462;28;20043;-86
2024/01/28 03:56:18;;;;;;;17.83;9.50;;;-0.20;99.90;;;;;;5115297;28;20126;-88
2024/01/28 03:58:43;;;;;;;22.40;10.43;;;2.50;99.90;;;;;;5115697;28;20122;-84
2024/01/28 04:01:09;;;;;;;26.30;11.05;;;1.90;99.90;;;;;;5132958;27;20495;-86
2024/01/28 04:03:36;;;;;;;18.77;9.32;;;1.10;99.90;;;;;;5116683;28;20035;-83
2024/01/28 04:06:02;;;;;;;19.23;8.85;;;-0.20;99.90;;;;;;5119053;28;20403;-83
2024/01/28 04:08:28;;;;;;;21.05;9.38;;;0.60;99.90;;;;;;5117867;28;20038;-84
2024/01/28 04:10:53;;;;;;;20.30;9.15;;;-0.10;99.90;;;;;;5115392;28;20404;-83
2024/01/28 04:13:19;;;;;;;27.77;9.82;;;-0.10;99.90;;;;;;5116681;28;20044;-83
2024/01/28 04:15:45;;;;;;;20.92;9.90;;;0.00;99.90;;;;;;5116996;28;20182;-83
2024/01/28 04:18:11;;;;;;;19.35;9.40;;;-0.60;99.90;;;;;;5116352;28;20039;-84
2024/01/28 04:20:36;;;;;;;19.02;9.63;;;-0.20;99.90;;;;;;5116199;28;20046;-84
2024/01/28 04:23:02;;;;;;;26.25;10.32;;;-0.10;99.90;;;;;;5115013;28;20096;-84
2024/01/28 04:25:27;;;;;;;29.92;9.82;;;0.40;99.90;;;;;;5114891;28;20040;-84
2024/01/28 04:27:53;;;;;;;23.35;9.32;;;2.40;99.90;;;;;;5116070;28;20044;-83
2024/01/28 04:30:19;;;;;;;22.88;9.60;;;3.10;99.90;;;;;;5116107;28;20404;-84
2024/01/28 04:32:45;;;;;;;25.88;9.13;;;2.20;99.90;;;;;;5116270;28;20036;-83
2024/01/28 04:35:12;;;;;;;25.40;8.82;;;2.00;99.90;;;;;;5115197;28;20105;-84
2024/01/28 04:37:39;;;;;;;22.77;9.73;;;0.20;99.90;;;;;;5115088;28;20043;-83
2024/01/28 04:40:06;;;;;;;24.77;9.00;;;2.90;99.90;;;;;;5115621;28;20118;-84
2024/01/28 04:42:32;;;;;;;18.83;7.95;;;0.50;99.90;;;;;;5114861;28;20044;-84
2024/01/28 04:44:58;;;;;;;24.55;8.88;;;0.20;99.90;;;;;;5115914;28;20047;-83
2024/01/28 04:47:23;;;;;;;23.65;9.48;;;0.10;99.90;;;;;;5115618;28;20061;-83
2024/01/28 04:49:49;;;;;;;23.95;8.65;;;2.30;99.90;;;;;;5114736;28;20095;-84
2024/01/28 04:52:15;;;;;;;22.15;9.52;;;0.10;99.90;;;;;;5115620;28;20125;-84
2024/01/28 04:54:41;;;;;;;20.00;8.68;;;2.70;99.90;;;;;;5114379;28;20045;-85
2024/01/28 04:57:06;;;;;;;20.80;8.55;;;1.60;99.90;;;;;;5131259;27;20073;-83
2024/01/28 04:59:32;;;;;;;21.73;9.25;;;-0.10;99.90;;;;;;5115380;28;20036;-83
2024/01/28 05:01:58;;;;;;;23.65;8.45;;;1.30;99.90;;;;;;5115523;28;20079;-84
2024/01/28 05:04:24;;;;;;;15.10;7.63;;;1.30;99.90;;;;;;5114078;28;20211;-83
2024/01/28 05:06:50;;;;;;;19.70;8.57;;;-0.50;99.90;;;;;;5113685;28;20043;-84
2024/01/28 05:09:17;;;;;;;19.77;7.53;;;-0.50;99.90;;;;;;5115280;28;20055;-84
2024/01/28 05:11:44;;;;;;;17.58;8.77;;;-0.50;99.90;;;;;;5113601;28;20096;-83
2024/01/28 05:14:10;;;;;;;20.13;7.95;;;-0.50;99.90;;;;;;5114889;28;20485;-83
2024/01/28 05:16:36;;;;;;;18.75;9.25;;;-0.20;99.90;;;;;;5114958;28;20089;-83
2024/01/28 05:19:02;;;;;;;20.00;8.65;;;1.00;99.90;;;;;;5096441;28;20119;-83
2024/01/28 05:21:28;;;;;;;23.17;10.35;;;1.40;99.90;;;;;;5114639;28;20047;-83
2024/01/28 05:23:53;;;;;;;16.13;8.45;;;-0.40;99.90;;;;;;5114352;28;20032;-82
2024/01/28 05:26:19;;;;;;;17.02;8.55;;;-0.70;99.90;;;;;;5095618;28;20051;-83
2024/01/28 05:28:45;;;;;;;19.27;8.68;;;-0.50;99.90;;;;;;5114335;28;20097;-85
2024/01/28 05:31:12;;;;;;;18.50;8.00;;;-0.30;99.90;;;;;;5113235;28;20051;-84
2024/01/28 05:33:38;;;;;;;19.75;8.15;;;-0.70;99.90;;;;;;5113320;28;20071;-83
2024/01/28 05:36:12;;;;;;;17.85;8.35;;;-0.80;99.90;;;;;;5113321;28;20051;-84
2024/01/28 05:38:38;;;;;;;22.25;8.93;;;-0.20;99.90;;;;;;5114229;28;20082;-83
2024/01/28 05:41:04;;;;;;;14.80;7.97;;;-0.80;99.90;;;;;;5112591;28;20496;-83
2024/01/28 05:43:30;;;;;;;19.75;8.38;;;-0.40;99.90;;;;;;5113050;28;20059;-85
2024/01/28 05:45:56;;;;;;;24.70;9.20;;;-0.70;99.90;;;;;;5113019;28;20432;-83
2024/01/28 05:48:21;;;;;;;21.02;8.75;;;1.10;99.90;;;;;;5113143;28;20040;-85
2024/01/28 05:50:47;;;;;;;20.15;8.05;;;-1.10;99.90;;;;;;5096231;28;20054;-83
2024/01/28 05:53:12;;;;;;;22.23;8.93;;;-0.90;99.90;;;;;;5112845;28;20040;-83
2024/01/28 05:55:38;;;;;;;18.58;8.70;;;-0.30;99.90;;;;;;5112892;28;20055;-84
2024/01/28 05:58:04;;;;;;;17.95;8.68;;;1.80;99.90;;;;;;5113882;28;20522;-83
2024/01/28 06:00:29;;;;;;;18.70;8.88;;;-0.40;99.90;;;;;;5095794;28;20043;-83
2024/01/28 06:02:55;;;;;;;18.10;9.48;;;-0.30;99.90;;;;;;5094983;28;20047;-83
2024/01/28 06:05:21;;;;;;;20.02;8.55;;;-0.90;99.90;;;;;;5095895;28;20369;-83
2024/01/28 06:07:46;;;;;;;21.83;8.52;;;-0.50;99.90;;;;;;5112614;28;20108;-83
2024/01/28 06:10:12;;;;;;;21.98;9.20;;;-1.10;99.90;;;;;;5113855;28;20388;-83
2024/01/28 06:12:38;;;;;;;22.80;8.63;;;-0.50;99.90;;;;;;5095577;28;20046;-83
2024/01/28 06:15:08;;;;;;;20.10;8.48;;;-0.90;99.90;;;;;;5112785;28;20499;-83
2024/01/28 06:17:36;;;;;;;17.15;8.25;;;-0.60;99.90;;;;;;5111452;28;20493;-83
2024/01/28 06:20:03;;;;;;;22.95;9.68;;;-1.00;99.90;;;;;;5113414;28;20511;-83
2024/01/28 06:22:29;;;;;;;19.52;9.85;;;1.60;99.90;;;;;;5113075;28;20035;-84
2024/01/28 06:24:55;;;;;;;21.42;9.70;;;-0.90;99.90;;;;;;5112290;28;20385;-84
2024/01/28 06:27:20;;;;;;;23.83;9.32;;;0.70;99.90;;;;;;5112748;28;20047;-83
2024/01/28 06:29:47;;;;;;;18.45;9.45;;;-0.60;99.90;;;;;;5112183;28;20043;-84
2024/01/28 06:32:13;;;;;;;18.08;9.88;;;-1.40;99.90;;;;;;5112267;28;20476;-84
2024/01/28 06:34:39;;;;;;;23.10;10.43;;;-0.60;99.90;;;;;;5112342;28;20073;-84
2024/01/28 06:37:04;;;;;;;18.38;9.77;;;-1.20;99.90;;;;;;5112397;28;20052;-84
2024/01/28 06:39:31;;;;;;;21.45;9.38;;;-1.30;99.90;;;;;;5111975;28;20143;-84
2024/01/28 06:41:57;;;;;;;17.90;9.77;;;1.00;99.90;;;;;;5112197;28;20403;-83
2024/01/28 06:44:23;;;;;;;18.98;9.15;;;-0.60;99.90;;;;;;5113520;28;20039;-84
2024/01/28 06:46:48;;;;;;;16.75;9.25;;;-1.70;99.90;;;;;;5113220;28;20055;-84
2024/01/28 06:49:14;;;;;;;24.77;9.80;;;-1.30;99.90;;;;;;5112977;28;20051;-84
2024/01/28 06:51:41;;;;;;;15.85;8.77;;;-1.20;99.90;;;;;;5112146;28;20047;-84
2024/01/28 06:54:07;;;;;;;27.42;11.00;;;-0.80;99.90;;;;;;5112387;28;20040;-83
2024/01/28 06:56:33;;;;;;;18.60;9.25;;;-1.10;99.90;;;;;;5112738;28;20085;-83
2024/01/28 06:58:59;;;;;;;19.88;9.30;;;0.60;99.90;;;;;;5113048;28;20126;-85
2024/01/28 07:01:24;;;;;;;22.92;9.68;;;-1.40;99.90;;;;;;5113298;28;20128;-84
2024/01/28 07:03:50;;;;;;;22.77;9.27;;;-1.60;99.90;;;;;;5112184;28;20043;-84
2024/01/28 07:06:16;;;;;;;19.90;9.48;;;1.30;99.90;;;;;;5112247;28;20127;-84
2024/01/28 07:08:42;;;;;;;16.95;9.98;;;-1.30;99.90;;;;;;5111911;28;20036;-83
2024/01/28 07:11:08;;;;;;;17.10;8.55;;;-1.40;99.90;;;;;;5094868;28;20093;-84
2024/01/28 07:13:34;;;;;;;19.92;9.35;;;-1.20;99.90;;;;;;5094607;28;20043;-84
2024/01/28 07:15:59;;;;;;;15.60;9.60;;;-1.30;99.90;;;;;;5113187;28;20047;-83
2024/01/28 07:18:25;;;;;;;18.88;8.70;;;-1.40;99.90;;;;;;5095057;28;20120;-83
2024/01/28 07:20:51;;;;;;;22.20;9.57;;;-1.30;99.90;;;;;;5094953;28;20064;-83
2024/01/28 07:23:16;;;;;;;22.48;9.00;;;-1.00;99.90;;;;;;5112316;28;20035;-84
2024/01/28 07:25:42;;;;;;;17.90;8.52;;;-1.30;99.90;;;;;;5112262;28;20043;-84
2024/01/28 07:28:07;;;;;;;21.23;9.82;;;0.10;99.90;;;;;;5112095;28;20042;-85
2024/01/28 07:30:33;;;;;;;20.88;9.30;;;0.40;99.90;;;;;;5116457;28;20054;-84
2024/01/28 07:32:59;;;;;;;14.23;8.60;;;-1.70;99.90;;;;;;5116341;28;20089;-84
2024/01/28 07:35:24;;;;;;;19.17;8.65;;;0.80;99.90;;;;;;5115402;28;20139;-85
2024/01/28 07:37:50;;;;;;;18.90;9.65;;;0.50;99.90;;;;;;5115039;28;20042;-84
2024/01/28 07:40:16;;;;;;;14.95;8.35;;;-1.30;99.90;;;;;;5097799;28;20071;-84
2024/01/28 07:42:42;;;;;;;21.73;9.80;;;-1.00;99.90;;;;;;5115579;28;20584;-83
2024/01/28 07:45:09;;;;;;;15.95;9.05;;;-0.80;99.90;;;;;;5097796;28;20084;-83
2024/01/28 07:47:36;;;;;;;18.30;8.43;;;-1.20;99.90;;;;;;5115224;28;20036;-84
2024/01/28 07:50:05;;;;;;;21.25;9.15;;;0.40;99.90;;;;;;5115205;28;20046;-83
2024/01/28 07:52:32;;;;;;;18.83;9.35;;;-1.20;99.90;;;;;;5115262;28;20044;-84
2024/01/28 07:54:57;;;;;;;21.92;9.65;;;0.00;99.90;;;;;;5115352;28;20440;-83
2024/01/28 07:57:23;;;;;;;17.17;9.48;;;-0.20;99.90;;;;;;5115032;28;20082;-84
2024/01/28 07:59:49;;;;;;;23.63;9.85;;;-0.10;99.90;;;;;;5116456;28;20050;-84
2024/01/28 08:02:15;;;;;;;20.42;8.50;;;-1.30;99.90;;;;;;5115319;28;20557;-85
2024/01/28 08:04:41;;;;;;;19.90;9.82;;;-1.30;99.90;;;;;;5115002;28;20131;-84
2024/01/28 08:07:07;;;;;;;16.67;9.13;;;-0.80;99.90;;;;;;5116199;28;20035;-83
2024/01/28 08:09:33;;;;;;;23.52;9.82;;;-1.20;99.90;;;;;;5115088;28;20400;-84
2024/01/28 08:11:59;;;;;;;20.42;9.32;;;-1.80;99.90;;;;;;5114342;27;20050;-84
2024/01/28 08:14:27;;;;;;;17.48;9.65;;;-1.50;99.90;;;;;;5114546;28;20040;-84
2024/01/28 08:16:54;;;;;;;22.88;9.95;;;-1.00;99.90;;;;;;5115716;28;20044;-84
2024/01/28 08:19:20;;;;;;;24.08;10.55;;;0.00;99.90;;;;;;5116212;28;20039;-84
2024/01/28 08:21:47;;;;;;;28.77;10.60;;;-1.30;99.90;;;;;;5116481;28;20054;-83
2024/01/28 08:24:13;;;;;;;21.40;10.15;;;-1.40;99.90;;;;;;5116128;28;20044;-83
2024/01/28 08:26:39;;;;;;;19.58;9.73;;;-1.30;99.90;;;;;;5115586;28;20051;-84
2024/01/28 08:29:05;;;;;;;20.25;10.75;;;0.00;99.90;;;;;;5098069;28;20040;-84
2024/01/28 08:31:30;;;;;;;26.50;10.18;;;-1.60;99.90;;;;;;5115773;28;20051;-83
2024/01/28 08:33:56;;;;;;;20.33;9.68;;;-0.80;99.90;;;;;;5114805;28;20126;-83
2024/01/28 08:36:22;;;;;;;17.52;10.05;;;-1.40;99.90;;;;;;5115578;28;20066;-86
2024/01/28 08:38:47;;;;;;;19.20;10.35;;;1.50;99.90;;;;;;5115829;28;20044;-85
2024/01/28 08:41:13;;;;;;;21.90;8.93;;;0.20;99.90;;;;;;5113478;28;20122;-84
2024/01/28 08:43:39;;;;;;;19.48;9.93;;;-0.80;99.90;;;;;;5097740;28;20499;-83
2024/01/28 08:46:05;;;;;;;21.17;10.05;;;-1.10;99.90;;;;;;5114298;28;20575;-87
2024/01/28 08:48:31;;;;;;;22.25;9.55;;;-1.00;99.90;;;;;;5114503;28;20043;-86
2024/01/28 08:50:57;;;;;;;29.85;11.50;;;0.60;99.90;;;;;;5096966;28;20074;-83
2024/01/28 08:53:23;;;;;;;20.25;10.57;;;-0.70;99.90;;;;;;5114200;28;20396;-83
2024/01/28 08:55:48;;;;;;;20.05;9.80;;;-0.90;99.90;;;;;;5113972;28;20056;-83
2024/01/28 08:58:14;;;;;;;21.25;11.10;;;1.60;99.90;;;;;;5113822;28;20499;-84
2024/01/28 09:00:40;;;;;;;26.45;11.15;;;1.70;99.90;;;;;;5112968;27;20036;-84
2024/01/28 09:03:05;;;;;;;20.95;9.02;;;-0.50;99.90;;;;;;5112594;28;20040;-83
2024/01/28 09:05:31;;;;;;;16.35;8.48;;;-0.50;99.90;;;;;;5113405;28;20046;-83
2024/01/28 09:07:57;;;;;;;16.98;8.70;;;2.10;99.90;;;;;;5096432;28;20062;-83
2024/01/28 09:10:23;;;;;;;18.02;8.70;;;2.60;99.90;;;;;;5113581;28;20043;-84
2024/01/28 09:12:49;;;;;;;16.92;8.35;;;2.40;99.90;;;;;;5114977;28;20130;-85
2024/01/28 09:15:15;;;;;;;16.98;7.88;;;0.10;99.90;;;;;;5114501;28;20129;-83
2024/01/28 09:17:41;;;;;;;16.83;8.75;;;0.10;99.90;;;;;;5113401;28;20105;-83
2024/01/28 09:20:08;;;;;;;21.02;8.00;;;0.00;99.90;;;;;;5113576;28;20048;-83
2024/01/28 09:22:35;;;;;;;15.88;7.65;;;0.60;99.90;;;;;;5114882;28;20044;-83
2024/01/28 09:25:03;;;;;;;13.88;7.90;;;0.50;99.90;;;;;;5114914;28;20046;-84
2024/01/28 09:27:29;;;;;;;22.02;8.70;;;2.50;99.90;;;;;;5113760;28;20043;-83
2024/01/28 09:29:55;;;;;;;21.45;8.40;;;2.60;99.90;;;;;;5096440;28;20043;-83
2024/01/28 09:32:21;;;;;;;20.52;8.52;;;2.80;99.90;;;;;;5113748;28;20055;-85
2024/01/28 09:34:47;;;;;;;14.90;7.72;;;3.30;99.90;;;;;;5113678;28;20039;-83
2024/01/28 09:37:13;;;;;;;15.05;7.60;;;2.50;99.90;;;;;;5115400;28;20096;-83
2024/01/28 09:39:38;;;;;;;19.55;9.00;;;3.20;99.90;;;;;;5114589;28;20050;-83
2024/01/28 09:42:18;;;;;;;16.63;7.20;;;3.40;99.90;;;;;;5113358;28;20043;-84
2024/01/28 09:44:45;;;;;;;15.65;6.80;;;1.70;99.90;;;;;;5113989;28;20055;-84
2024/01/28 09:47:10;;;;;;;14.68;7.60;;;1.80;99.90;;;;;;5096466;28;20055;-83
2024/01/28 09:49:41;;;;;;;16.65;6.82;;;2.10;99.90;;;;;;5113385;28;20043;-84
2024/01/28 09:52:11;;;;;;;19.02;7.05;;;1.90;99.90;;;;;;5114586;28;20035;-82
2024/01/28 09:54:47;;;;;;;14.30;6.70;;;4.20;99.90;;;;;;5114712;28;20044;-86
2024/01/28 09:57:15;;;;;;;18.27;6.63;;;3.40;99.90;;;;;;5076514;28;20508;-85
2024/01/28 09:59:40;;;;;;;15.93;6.93;;;4.60;99.90;;;;;;5092787;28;20059;-84
2024/01/28 10:02:07;;;;;;;12.88;6.32;;;3.70;99.90;;;;;;5092966;28;20044;-83
2024/01/28 10:04:33;;;;;;;12.98;6.70;;;2.20;99.90;;;;;;5093557;28;20044;-86
2024/01/28 10:07:02;;;;;;;19.40;6.65;;;3.90;99.90;;;;;;5096582;28;20085;-89
2024/01/28 10:09:29;;;;;;;16.63;6.63;;;2.70;99.90;;;;;;5113489;28;20136;-89
2024/01/28 10:11:59;;;;;;;11.02;6.05;;;4.50;99.90;;;;;;5113747;28;20101;-86
2024/01/28 10:14:25;;;;;;;12.15;6.45;;;2.30;99.90;;;;;;5130885;27;20413;-84
2024/01/28 10:16:51;;;;;;;11.35;5.97;;;2.90;99.90;;;;;;5115257;28;20075;-86
2024/01/28 10:19:16;;;;;;;14.38;5.65;;;1.90;99.90;;;;;;5114488;28;20123;-87
2024/01/28 10:21:45;;;;;;;12.30;5.93;;;3.40;99.90;;;;;;5115185;28;20373;-84
2024/01/28 10:24:11;;;;;;;13.63;5.85;;;1.80;99.90;;;;;;5114487;28;20043;-84
2024/01/28 10:26:37;;;;;;;12.65;5.65;;;3.50;99.90;;;;;;5114130;28;20047;-88
2024/01/28 10:29:04;;;;;;;16.08;5.70;;;3.50;99.90;;;;;;5114092;28;20122;-86
2024/01/28 10:31:30;;;;;;;9.98;5.40;;;4.20;99.90;;;;;;5114313;28;20059;-85
2024/01/28 10:33:56;;;;;;;16.15;5.82;;;1.40;99.90;;;;;;5115398;28;20036;-86
2024/01/28 10:36:21;;;;;;;12.77;5.28;;;2.60;99.90;;;;;;5113112;28;20058;-82
2024/01/28 10:38:48;;;;;;;13.50;5.82;;;2.30;99.90;;;;;;5112719;28;20043;-85
2024/01/28 10:41:18;;;;;;;15.77;5.82;;;2.40;99.90;;;;;;5112087;28;20088;-83
2024/01/28 10:43:57;;;;;;;10.25;4.63;;;4.40;99.90;;;;;;5112252;28;20032;-85
2024/01/28 10:46:32;;;;;;;10.63;4.88;;;3.00;99.90;;;;;;5094901;28;20050;-85
2024/01/28 10:49:02;;;;;;;11.88;5.22;;;2.70;99.90;;;;;;5112182;28;20047;-85
2024/01/28 10:51:28;;;;;;;16.38;5.22;;;4.50;99.90;;;;;;5095735;28;20492;-85
2024/01/28 10:53:55;;;;;;;14.43;5.47;;;4.60;99.90;;;;;;5112425;28;20122;-86
2024/01/28 10:56:21;;;;;;;13.30;5.18;;;5.30;99.90;;;;;;5112345;28;20505;-84
2024/01/28 10:58:47;;;;;;;9.07;4.25;;;5.40;99.90;;;;;;5112465;28;20040;-83
2024/01/28 11:01:14;;;;;;;16.15;4.93;;;3.60;99.90;;;;;;5113692;28;20070;-84
2024/01/28 11:03:39;;;;;;;10.38;4.57;;;5.80;99.90;;;;;;5114175;28;20054;-84
2024/01/28 11:06:07;;;;;;;11.57;4.05;;;4.40;99.90;;;;;;5118027;28;20043;-84
2024/01/28 11:08:33;;;;;;;9.25;4.13;;;4.40;99.90;;;;;;5098966;28;20082;-85
2024/01/28 11:10:59;;;;;;;9.60;4.43;;;5.60;99.90;;;;;;5116049;28;20094;-85
2024/01/28 11:13:25;;;;;;;8.65;3.88;;;5.90;99.90;;;;;;5117300;28;20044;-85
2024/01/28 11:15:54;;;;;;;12.00;4.18;;;4.70;99.90;;;;;;5117704;28;20072;-86
2024/01/28 11:18:30;;;;;;;14.80;4.43;;;6.80;99.90;;;;;;5117393;28;20138;-84
2024/01/28 11:20:56;;;;;;;7.65;4.00;;;5.00;99.90;;;;;;5116378;28;20044;-84
2024/01/28 11:23:21;;;;;;;10.57;3.65;;;5.00;99.90;;;;;;5116120;28;20510;-85
2024/01/28 11:25:49;;;;;;;8.98;3.70;;;5.10;99.90;;;;;;5116061;28;20077;-85
2024/01/28 11:28:15;;;;;;;8.50;3.28;;;6.50;99.90;;;;;;5115909;28;20375;-85
2024/01/28 11:30:46;;;;;;;8.27;3.45;;;6.40;99.90;;;;;;5117191;28;20051;-84
2024/01/28 11:33:14;;;;;;;7.22;3.15;;;6.50;99.90;;;;;;5115787;28;20047;-84
2024/01/28 11:35:43;;;;;;;7.60;3.65;;;5.70;99.90;;;;;;5115558;28;20067;-85
2024/01/28 11:38:10;;;;;;;7.75;3.22;;;6.90;99.90;;;;;;5117031;28;20058;-85
2024/01/28 11:40:38;;;;;;;9.30;3.67;;;5.50;99.90;;;;;;5116438;28;20110;-84
2024/01/28 11:43:09;;;;;;;12.82;4.15;;;7.00;99.90;;;;;;5115834;28;20122;-84
2024/01/28 11:45:36;;;;;;;7.60;3.67;;;6.10;99.90;;;;;;5115436;28;20039;-85
2024/01/28 11:48:09;;;;;;;10.85;3.35;;;5.80;99.90;;;;;;5117270;27;20387;-87
2024/01/28 11:50:35;;;;;;;8.23;3.30;;;6.10;99.90;;;;;;5115851;28;20476;-85
2024/01/28 11:53:01;;;;;;;10.45;3.53;;;5.90;99.90;;;;;;5115379;28;20028;-85
2024/01/28 11:55:27;;;;;;;7.07;3.42;;;6.80;99.90;;;;;;5115135;28;20073;-86
2024/01/28 11:57:52;;;;;;;6.70;3.13;;;6.10;99.90;;;;;;5114904;28;20043;-86
2024/01/28 12:00:18;;;;;;;8.93;3.88;;;6.10;99.90;;;;;;5124966;27;20117;-87
2024/01/28 12:02:44;;;;;;;11.45;4.78;;;6.20;99.90;;;;;;5095002;28;20116;-87
2024/01/28 12:05:10;;;;;;;9.55;3.83;;;6.30;99.90;;;;;;5095218;28;20044;-87
2024/01/28 12:07:37;;;;;;;9.40;4.20;;;6.10;99.90;;;;;;5094755;28;20040;-86
2024/01/28 12:10:09;;;;;;;6.93;3.08;;;7.90;99.90;;;;;;5094591;28;20047;-87
2024/01/28 12:12:35;;;;;;;8.35;3.00;;;6.40;99.90;;;;;;5078125;28;20185;-87
2024/01/28 12:15:05;;;;;;;6.82;2.97;;;6.50;99.90;;;;;;5099726;28;20040;-85
2024/01/28 12:17:41;;;;;;;8.05;2.40;;;6.50;99.90;;;;;;5114920;28;20059;-86
2024/01/28 12:20:18;;;;;;;7.20;2.72;;;6.80;99.90;;;;;;5114518;28;20092;-84
2024/01/28 12:22:44;;;;;;;6.95;2.75;;;6.60;99.90;;;;;;5115819;28;20047;-86
2024/01/28 12:25:11;;;;;;;8.52;2.72;;;6.80;99.90;;;;;;5114940;28;20039;-85
2024/01/28 12:27:41;;;;;;;6.30;3.05;;;6.70;99.90;;;;;;5097140;28;20040;-85
2024/01/28 12:30:10;;;;;;;14.73;2.85;;;7.90;99.90;;;;;;5115026;28;20040;-87
2024/01/28 12:32:39;;;;;;;7.45;2.60;;;7.30;99.90;;;;;;5114648;28;20112;-85
2024/01/28 12:35:09;;;;;;;6.10;2.58;;;8.20;99.90;;;;;;5115260;28;20043;-87
2024/01/28 12:37:38;;;;;;;5.80;2.42;;;7.20;99.90;;;;;;5115300;28;20464;-85
2024/01/28 12:40:06;;;;;;;5.32;2.60;;;7.00;99.90;;;;;;5114788;28;20048;-86